Summitville, Indiana
Current Conditions -  °F | °C
As of 11:15 AM on Sunday 25 Jan 2015 (Local Time) from KMZZ Reporting Station
Light Snow Light Snow  
Wind Chill: 25°   Ceiling: 1300
Heat Index: 33°   Visibility: 1.5mi
Dew Point: 32°   Wind: 8mph
Humidity: 99%   Direction: 90°E
Pressure: 29.72"   Gusts: NA
Location:  40.34°N, 85.64°W
Report Text: KMZZ 251615Z AUTO 09007KT 1 1/2SM -SN SCT003 OVC013 00/00 A2972 RMK AO2 P0002 T00030002
Loading
Personal Weather Stations






























Interactive Weather Map New forecast layout! Learn more

10-Day Weather Forecast

Advertisements
Track Severe Weather on mobile